createdAt,value
2019-04-06T00:01:13.133Z,45.36
2019-04-06T00:03:41.106Z,47.07
2019-04-06T00:06:09.000Z,47.24
2019-04-06T00:08:36.740Z,47.04
2019-04-06T00:11:05.025Z,48.02
2019-04-06T00:13:32.763Z,46.01
2019-04-06T00:16:00.656Z,48.85
2019-04-06T00:18:28.386Z,47.40
2019-04-06T00:20:56.141Z,46.96
2019-04-06T00:23:24.006Z,48.34
2019-04-06T00:25:51.696Z,48.08
2019-04-06T00:28:19.440Z,48.90
2019-04-06T00:31:02.985Z,50.29
2019-04-06T00:33:31.100Z,49.17
2019-04-06T00:35:58.982Z,49.20
2019-04-06T00:38:26.736Z,50.65
2019-04-06T00:40:54.626Z,51.29
2019-04-06T00:43:22.584Z,52.73
2019-04-06T00:45:50.309Z,51.81
2019-04-06T00:48:18.092Z,51.42
2019-04-06T00:50:45.866Z,53.27
2019-04-06T00:53:13.739Z,52.32
2019-04-06T00:55:41.542Z,50.67
2019-04-06T00:58:09.290Z,51.12
2019-04-06T01:00:37.139Z,52.13
2019-04-06T01:03:04.947Z,54.77
2019-04-06T01:05:32.782Z,53.69
2019-04-06T01:08:00.684Z,54.79
2019-04-06T01:10:28.424Z,55.29
2019-04-06T01:12:56.281Z,54.70
2019-04-06T01:15:24.060Z,54.12
2019-04-06T01:17:51.917Z,53.06
2019-04-06T01:20:19.776Z,54.46
2019-04-06T01:22:47.653Z,55.35
2019-04-06T01:25:15.525Z,56.57
2019-04-06T01:27:43.275Z,56.46
2019-04-06T01:30:11.028Z,56.67
2019-04-06T01:32:38.923Z,56.37
2019-04-06T01:35:06.704Z,56.44
2019-04-06T01:37:34.567Z,56.66
2019-04-06T01:40:02.293Z,55.01
2019-04-06T01:42:30.124Z,53.87
2019-04-06T01:44:57.858Z,53.08
2019-04-06T01:47:25.768Z,52.62
2019-04-06T01:49:53.706Z,51.70
2019-04-06T01:52:21.587Z,52.15
2019-04-06T01:54:49.418Z,52.11
2019-04-06T01:57:17.298Z,51.86
2019-04-06T01:59:45.102Z,50.74
2019-04-06T02:02:26.936Z,51.51
2019-04-06T02:04:54.660Z,52.50
2019-04-06T02:07:22.529Z,54.75
2019-04-06T02:09:50.247Z,53.64
2019-04-06T02:12:18.022Z,53.41
2019-04-06T02:14:45.977Z,52.46
2019-04-06T02:17:13.743Z,53.43
2019-04-06T02:19:41.525Z,54.10
2019-04-06T02:22:09.251Z,52.86
2019-04-06T02:24:37.078Z,54.07
2019-04-06T02:27:04.771Z,53.45
2019-04-06T02:29:32.746Z,54.41
2019-04-06T02:32:09.345Z,56.39
2019-04-06T02:34:56.044Z,53.31
2019-04-06T02:37:40.029Z,53.02
2019-04-06T02:40:25.200Z,52.38
2019-04-06T02:43:05.745Z,51.40
2019-04-06T02:45:33.775Z,52.30
2019-04-06T02:48:01.587Z,50.82
2019-04-06T02:50:29.390Z,50.20
2019-04-06T02:52:57.189Z,49.57
2019-04-06T02:55:25.122Z,51.32
2019-04-06T02:57:52.926Z,49.47
2019-04-06T03:00:20.661Z,50.22
2019-04-06T03:02:48.528Z,49.42
2019-04-06T03:05:16.491Z,49.70
2019-04-06T03:07:44.302Z,50.07
2019-04-06T03:10:12.317Z,48.97
2019-04-06T03:12:40.449Z,52.13
2019-04-06T03:15:08.358Z,49.79
2019-04-06T03:17:36.096Z,49.70
2019-04-06T03:20:03.984Z,50.40
2019-04-06T03:22:31.893Z,49.27
2019-04-06T03:24:59.716Z,50.24
2019-04-06T03:27:27.707Z,48.74
2019-04-06T03:29:58.248Z,49.36
2019-04-06T03:32:25.025Z,51.69
2019-04-06T03:34:52.745Z,52.48
2019-04-06T03:37:20.621Z,52.82
2019-04-06T03:39:48.508Z,51.50
2019-04-06T03:42:16.487Z,51.92
2019-04-06T03:44:44.326Z,51.81
2019-04-06T03:47:12.206Z,51.22
2019-04-06T03:49:40.094Z,50.62
2019-04-06T03:52:07.969Z,51.68
2019-04-06T03:54:35.687Z,52.61
2019-04-06T03:57:14.515Z,52.33
2019-04-06T03:59:33.067Z,52.67
2019-04-06T04:02:00.962Z,52.52
2019-04-06T04:04:28.693Z,52.68
2019-04-06T04:06:56.501Z,54.87
2019-04-06T04:09:24.299Z,55.16
2019-04-06T04:11:52.148Z,54.85
2019-04-06T04:14:19.878Z,54.51
2019-04-06T04:16:47.634Z,53.94
2019-04-06T04:19:15.480Z,53.83
2019-04-06T04:21:43.232Z,52.88
2019-04-06T04:24:11.113Z,52.29
2019-04-06T04:26:38.870Z,51.79
2019-04-06T04:29:06.583Z,53.68
2019-04-06T04:31:34.332Z,53.68
2019-04-06T04:34:02.438Z,53.42
2019-04-06T04:36:30.307Z,54.89
2019-04-06T04:38:58.394Z,55.13
2019-04-06T04:41:26.364Z,54.10
2019-04-06T04:43:54.327Z,53.53
2019-04-06T04:46:22.088Z,53.53
2019-04-06T04:48:50.047Z,56.00
2019-04-06T04:51:17.854Z,56.00
2019-04-06T04:53:45.783Z,53.76
2019-04-06T04:56:13.566Z,55.00
2019-04-06T04:58:41.288Z,55.00
2019-04-06T05:01:09.066Z,56.50
2019-04-06T05:03:36.807Z,55.51
2019-04-06T05:06:04.843Z,55.02
2019-04-06T05:08:32.806Z,55.06
2019-04-06T05:11:00.880Z,54.89
2019-04-06T05:13:28.646Z,54.52
2019-04-06T05:15:56.403Z,54.12
2019-04-06T05:18:24.298Z,54.44
2019-04-06T05:20:52.117Z,55.68
2019-04-06T05:23:19.879Z,56.32
2019-04-06T05:25:47.661Z,56.47
2019-04-06T05:28:15.567Z,55.63
2019-04-06T05:30:43.452Z,57.08
2019-04-06T05:33:11.405Z,57.13
2019-04-06T05:35:39.212Z,56.15
2019-04-06T05:38:06.962Z,56.64
2019-04-06T05:40:34.787Z,57.94
2019-04-06T05:43:02.524Z,57.09
2019-04-06T05:45:30.378Z,59.73
2019-04-06T05:47:58.300Z,60.03
2019-04-06T05:50:26.035Z,58.21
2019-04-06T05:52:53.753Z,57.09
2019-04-06T05:55:21.873Z,55.95
2019-04-06T05:58:02.358Z,55.51
2019-04-06T06:00:20.718Z,56.69
2019-04-06T06:02:48.526Z,55.48
2019-04-06T06:05:16.341Z,55.64
2019-04-06T06:07:44.229Z,55.64
2019-04-06T06:10:12.098Z,55.73
2019-04-06T06:12:40.127Z,55.94
2019-04-06T06:15:07.903Z,56.32
2019-04-06T06:17:35.780Z,55.09
2019-04-06T06:20:03.646Z,55.36
2019-04-06T06:22:31.400Z,54.17
2019-04-06T06:24:59.362Z,54.97
2019-04-06T06:27:27.329Z,54.40
2019-04-06T06:29:55.065Z,54.53
2019-04-06T06:32:22.927Z,54.84
2019-04-06T06:34:50.656Z,54.64
2019-04-06T06:37:18.407Z,55.24
2019-04-06T06:39:46.273Z,55.92
2019-04-06T06:42:14.379Z,54.53
2019-04-06T06:44:42.235Z,56.09
2019-04-06T06:47:10.115Z,55.43
2019-04-06T06:49:37.865Z,55.89
2019-04-06T06:52:05.751Z,54.02
2019-04-06T06:54:33.504Z,53.82
2019-04-06T06:57:01.279Z,54.78
2019-04-06T06:59:29.032Z,54.19
2019-04-06T07:01:56.848Z,53.80
2019-04-06T07:04:24.689Z,53.43
2019-04-06T07:06:52.654Z,53.69
2019-04-06T07:09:20.830Z,53.00
2019-04-06T07:11:48.655Z,52.93
2019-04-06T07:14:16.555Z,52.54
2019-04-06T07:16:44.449Z,51.86
2019-04-06T07:19:12.239Z,51.49
2019-04-06T07:21:40.157Z,51.66
2019-04-06T07:24:08.041Z,51.41
2019-04-06T07:26:35.848Z,50.73
2019-04-06T07:29:03.695Z,51.29
2019-04-06T07:31:31.808Z,50.91
2019-04-06T07:33:59.700Z,50.85
2019-04-06T07:36:27.880Z,50.90
2019-04-06T07:38:55.944Z,50.91
2019-04-06T07:41:23.854Z,50.25
2019-04-06T07:43:51.776Z,48.94
2019-04-06T07:46:19.584Z,48.85
2019-04-06T07:48:47.601Z,48.49
2019-04-06T07:51:15.398Z,48.88
2019-04-06T07:53:43.196Z,47.96
2019-04-06T07:56:11.057Z,48.81
2019-04-06T07:58:48.036Z,48.47
2019-04-06T08:01:08.462Z,47.77
2019-04-06T08:03:36.315Z,48.31
2019-04-06T08:06:04.262Z,48.16
2019-04-06T08:08:32.066Z,48.07
2019-04-06T08:10:59.917Z,47.42
2019-04-06T08:13:27.869Z,47.50
2019-04-06T08:15:55.659Z,46.08
2019-04-06T08:18:23.744Z,46.70
2019-04-06T08:20:51.747Z,45.42
2019-04-06T08:23:19.546Z,45.50
2019-04-06T08:25:47.762Z,47.00
2019-04-06T08:28:15.600Z,45.99
2019-04-06T08:30:46.359Z,46.82
2019-04-06T08:33:13.101Z,45.74
2019-04-06T08:35:40.893Z,45.15
2019-04-06T08:38:08.814Z,45.77
2019-04-06T08:40:36.720Z,46.13
2019-04-06T08:43:04.667Z,45.71
2019-04-06T08:45:32.534Z,45.45
2019-04-06T08:48:00.511Z,44.90
2019-04-06T08:50:28.366Z,45.92
2019-04-06T08:52:56.496Z,44.66
2019-04-06T08:55:24.592Z,43.25
2019-04-06T08:57:52.629Z,42.48
2019-04-06T09:00:20.364Z,42.28
2019-04-06T09:02:48.227Z,42.02
2019-04-06T09:05:16.007Z,41.95
2019-04-06T09:07:43.898Z,41.26
2019-04-06T09:10:11.627Z,41.39
2019-04-06T09:12:39.390Z,42.43
2019-04-06T09:15:07.478Z,41.99
2019-04-06T09:17:35.329Z,40.57
2019-04-06T09:20:03.206Z,40.35
2019-04-06T09:22:30.945Z,39.87
2019-04-06T09:24:58.874Z,38.72
2019-04-06T09:27:26.702Z,39.84
2019-04-06T09:29:54.689Z,40.31
2019-04-06T09:32:22.545Z,39.88
2019-04-06T09:34:50.417Z,39.65
2019-04-06T09:37:18.302Z,39.44
2019-04-06T09:39:46.156Z,38.30
2019-04-06T09:42:13.920Z,38.17
2019-04-06T09:45:03.362Z,38.42
2019-04-06T09:47:44.239Z,37.89
2019-04-06T09:50:33.692Z,36.91
2019-04-06T09:53:29.211Z,36.74
2019-04-06T09:56:18.685Z,36.96
2019-04-06T09:59:01.296Z,37.07
2019-04-06T10:01:47.954Z,35.45
2019-04-06T10:04:33.254Z,36.43
2019-04-06T10:07:19.999Z,35.62
2019-04-06T10:10:06.635Z,35.34
2019-04-06T10:12:50.187Z,35.25
2019-04-06T10:15:35.324Z,34.22
2019-04-06T10:18:21.990Z,33.55
2019-04-06T10:21:08.662Z,33.32
2019-04-06T10:23:46.163Z,32.52
2019-04-06T10:26:33.352Z,32.54
2019-04-06T10:29:22.059Z,32.68
2019-04-06T10:32:07.483Z,32.87
2019-04-06T10:35:00.454Z,31.77
2019-04-06T10:37:49.966Z,31.68
2019-04-06T10:40:31.070Z,30.52
2019-04-06T10:43:18.019Z,29.49
2019-04-06T10:45:55.617Z,30.02
2019-04-06T10:48:41.982Z,29.12
2019-04-06T10:51:22.806Z,29.12
2019-04-06T10:54:06.240Z,29.06
2019-04-06T10:57:02.461Z,28.78
2019-04-06T11:00:02.293Z,28.79
2019-04-06T11:02:51.581Z,28.18
2019-04-06T11:05:25.080Z,27.43
2019-04-06T11:08:10.272Z,27.54
2019-04-06T11:10:55.587Z,26.82
2019-04-06T11:13:42.180Z,26.70
2019-04-06T11:16:27.617Z,26.56
2019-04-06T11:19:20.157Z,25.45
2019-04-06T11:22:12.955Z,26.46
2019-04-06T11:25:02.400Z,24.31
2019-04-06T11:27:55.074Z,25.20
2019-04-06T11:30:39.137Z,26.35
2019-04-06T11:33:35.060Z,25.74
2019-04-06T11:36:34.157Z,26.78
2019-04-06T11:39:36.059Z,27.49
2019-04-06T11:42:13.540Z,26.97
2019-04-06T11:44:50.966Z,25.76
2019-04-06T11:47:43.554Z,25.87
2019-04-06T11:50:33.479Z,24.98
2019-04-06T11:53:08.131Z,25.01
2019-04-06T11:55:52.381Z,24.64
2019-04-06T11:58:39.080Z,23.95
2019-04-06T12:01:22.668Z,23.78
2019-04-06T12:04:18.423Z,23.16
2019-04-06T12:07:03.673Z,22.48
2019-04-06T12:09:42.655Z,22.39
2019-04-06T12:12:30.848Z,21.49
2019-04-06T12:15:23.334Z,20.93
2019-04-06T12:18:01.628Z,21.21
2019-04-06T12:20:44.300Z,20.85
2019-04-06T12:23:39.963Z,20.11
2019-04-06T12:26:18.063Z,19.51
2019-04-06T12:29:04.667Z,19.59
2019-04-06T12:31:47.529Z,19.70
2019-04-06T12:34:49.267Z,19.65
2019-04-06T12:37:31.851Z,19.38
2019-04-06T12:40:09.439Z,19.05
2019-04-06T12:42:50.642Z,20.22
2019-04-06T12:45:46.467Z,19.50
2019-04-06T12:48:39.311Z,19.83
2019-04-06T12:51:31.808Z,19.11
2019-04-06T12:54:17.980Z,18.37
2019-04-06T12:57:13.566Z,18.62
2019-04-06T12:59:53.934Z,19.06
2019-04-06T13:02:32.803Z,19.89
2019-04-06T13:05:17.974Z,20.25
2019-04-06T13:08:13.799Z,20.46
2019-04-06T13:10:59.337Z,20.06
2019-04-06T13:13:45.981Z,20.52
2019-04-06T13:16:33.304Z,20.50
2019-04-06T13:19:19.798Z,20.53
2019-04-06T13:22:06.642Z,19.85
2019-04-06T13:24:44.303Z,19.55
2019-04-06T13:27:30.687Z,20.05
2019-04-06T13:30:20.999Z,21.06
2019-04-06T13:33:16.914Z,21.22
2019-04-06T13:36:03.629Z,20.92
2019-04-06T13:38:56.924Z,20.60
2019-04-06T13:41:43.652Z,21.08
2019-04-06T13:44:49.272Z,21.19
2019-04-06T13:47:34.984Z,21.14
2019-04-06T13:50:24.437Z,20.86
2019-04-06T13:53:21.379Z,20.80
2019-04-06T13:56:10.850Z,21.96
2019-04-06T13:58:53.413Z,22.79
2019-04-06T14:01:49.448Z,22.04
2019-04-06T14:04:39.325Z,22.26
2019-04-06T14:07:26.075Z,23.17
2019-04-06T14:10:19.014Z,22.08
2019-04-06T14:13:11.571Z,21.81
2019-04-06T14:15:46.778Z,22.75
2019-04-06T14:18:33.553Z,24.77
2019-04-06T14:21:23.263Z,25.44
2019-04-06T14:24:02.249Z,23.89
2019-04-06T14:26:58.604Z,23.60
2019-04-06T14:30:03.526Z,23.63
2019-04-06T14:33:08.577Z,25.02
2019-04-06T14:35:47.722Z,26.67
2019-04-06T14:38:32.523Z,26.25
2019-04-06T14:41:12.375Z,26.84
2019-04-06T14:43:55.641Z,26.91
2019-04-06T14:46:51.960Z,27.25
2019-04-06T14:49:34.604Z,27.34
2019-04-06T14:52:20.711Z,27.77
2019-04-06T14:55:03.506Z,28.90
2019-04-06T14:57:59.443Z,27.88
2019-04-06T15:00:44.728Z,27.60
2019-04-06T15:03:30.254Z,28.37
2019-04-06T15:06:10.065Z,29.53
2019-04-06T15:08:55.673Z,29.75
2019-04-06T15:11:45.212Z,29.83
2019-04-06T15:14:27.645Z,29.45
2019-04-06T15:17:32.741Z,28.84
2019-04-06T15:20:19.426Z,27.66
2019-04-06T15:23:04.891Z,28.74
2019-04-06T15:25:57.953Z,29.04
2019-04-06T15:28:53.587Z,28.14
2019-04-06T15:31:55.552Z,29.45
2019-04-06T15:34:41.949Z,29.67
2019-04-06T15:37:25.377Z,31.72
2019-04-06T15:40:10.465Z,31.16
2019-04-06T15:43:03.336Z,31.99
2019-04-06T15:45:50.226Z,33.01
2019-04-06T15:48:41.196Z,32.39
2019-04-06T15:51:27.116Z,30.71
2019-04-06T15:54:23.520Z,30.95
2019-04-06T15:56:56.522Z,31.52
2019-04-06T15:59:52.165Z,33.06
2019-04-06T16:02:38.849Z,32.36
2019-04-06T16:05:19.206Z,32.12
2019-04-06T16:08:05.913Z,33.01
2019-04-06T16:10:52.527Z,32.53
2019-04-06T16:13:45.060Z,31.68
2019-04-06T16:16:31.887Z,31.94
2019-04-06T16:19:09.565Z,33.77
2019-04-06T16:22:05.599Z,34.32
2019-04-06T16:24:58.512Z,34.20
2019-04-06T16:27:51.584Z,34.68
2019-04-06T16:30:37.021Z,35.20
2019-04-06T16:33:12.798Z,35.37
2019-04-06T16:35:52.147Z,36.65
2019-04-06T16:38:37.765Z,36.96
2019-04-06T16:41:23.324Z,35.52
2019-04-06T16:44:04.878Z,36.72
2019-04-06T16:46:50.564Z,36.97
2019-04-06T16:49:31.354Z,37.63
2019-04-06T16:52:08.777Z,37.23
2019-04-06T16:55:14.211Z,37.66
2019-04-06T16:58:19.131Z,38.50
2019-04-06T17:00:56.819Z,38.18
2019-04-06T17:03:43.498Z,39.09
2019-04-06T17:06:20.400Z,39.24
2019-04-06T17:09:05.979Z,39.46
2019-04-06T17:11:53.588Z,39.66
2019-04-06T17:14:39.364Z,39.18
2019-04-06T17:17:32.020Z,39.66
2019-04-06T17:20:34.145Z,38.84
2019-04-06T17:23:07.932Z,38.56
2019-04-06T17:25:48.812Z,38.78
2019-04-06T17:28:47.968Z,39.93
2019-04-06T17:31:25.381Z,40.12
2019-04-06T17:34:01.569Z,39.71
2019-04-06T17:36:48.232Z,39.68
2019-04-06T17:39:44.531Z,39.85
2019-04-06T17:42:43.818Z,39.40
2019-04-06T17:45:36.666Z,39.46
2019-04-06T17:48:26.457Z,39.33
2019-04-06T17:51:21.984Z,39.48
2019-04-06T17:54:11.839Z,40.21
2019-04-06T17:56:57.434Z,40.92
2019-04-06T17:59:53.009Z,41.98
2019-04-06T18:02:47.832Z,41.85
2019-04-06T18:05:26.569Z,42.51
2019-04-06T18:08:19.328Z,42.58
2019-04-06T18:11:06.266Z,40.52
2019-04-06T18:13:48.288Z,40.98
2019-04-06T18:16:16.341Z,42.47
2019-04-06T18:18:44.150Z,42.91
2019-04-06T18:21:11.971Z,42.93
2019-04-06T18:23:40.321Z,43.37
2019-04-06T18:26:08.327Z,43.51
2019-04-06T18:28:36.221Z,42.61
2019-04-06T18:31:10.383Z,43.26
2019-04-06T18:33:38.106Z,43.36
2019-04-06T18:36:06.111Z,43.53
2019-04-06T18:38:37.620Z,43.24
2019-04-06T18:41:05.836Z,43.46
2019-04-06T18:43:33.863Z,44.54
2019-04-06T18:46:01.794Z,44.55
2019-04-06T18:48:29.919Z,44.14
2019-04-06T18:50:57.729Z,44.09
2019-04-06T18:53:25.489Z,44.31
2019-04-06T18:55:53.783Z,42.92
2019-04-06T18:58:22.032Z,42.98
2019-04-06T19:00:50.717Z,43.28
2019-04-06T19:03:18.840Z,44.68
2019-04-06T19:05:46.715Z,43.34
2019-04-06T19:08:14.641Z,43.93
2019-04-06T19:10:42.421Z,44.87
2019-04-06T19:13:10.319Z,45.01
2019-04-06T19:15:38.102Z,45.31
2019-04-06T19:18:05.875Z,45.57
2019-04-06T19:20:33.884Z,45.22
2019-04-06T19:23:01.649Z,46.03
2019-04-06T19:25:29.985Z,46.04
2019-04-06T19:27:58.059Z,45.98
2019-04-06T19:30:27.113Z,45.90
2019-04-06T19:32:55.283Z,46.29
2019-04-06T19:35:23.587Z,46.87
2019-04-06T19:37:51.976Z,46.60
2019-04-06T19:40:20.038Z,46.98
2019-04-06T19:42:47.817Z,46.97
2019-04-06T19:45:15.838Z,47.33
2019-04-06T19:47:43.695Z,47.33
2019-04-06T19:50:11.731Z,47.97
2019-04-06T19:52:39.704Z,47.92
2019-04-06T19:55:07.665Z,48.16
2019-04-06T19:57:36.167Z,47.74
2019-04-06T20:00:04.288Z,47.86
2019-04-06T20:02:32.481Z,48.26
2019-04-06T20:05:00.214Z,48.42
2019-04-06T20:07:28.030Z,48.38
2019-04-06T20:09:56.042Z,47.81
2019-04-06T20:12:23.842Z,47.51
2019-04-06T20:14:51.727Z,48.05
2019-04-06T20:17:19.814Z,47.33
2019-04-06T20:19:47.793Z,47.55
2019-04-06T20:22:15.663Z,47.26
2019-04-06T20:24:43.464Z,47.99
2019-04-06T20:27:11.595Z,48.08
2019-04-06T20:29:40.748Z,47.85
2019-04-06T20:32:08.824Z,48.84
2019-04-06T20:34:36.569Z,47.86
2019-04-06T20:37:04.607Z,49.05
2019-04-06T20:39:33.500Z,47.56
2019-04-06T20:42:01.955Z,46.86
2019-04-06T20:44:30.466Z,46.40
2019-04-06T20:46:58.445Z,46.18
2019-04-06T20:49:26.357Z,46.21
2019-04-06T20:51:54.380Z,45.99
2019-04-06T20:54:22.256Z,47.56
2019-04-06T20:59:19.366Z,47.36
2019-04-06T21:01:47.107Z,47.65
2019-04-06T21:04:15.622Z,48.24
2019-04-06T21:06:43.741Z,49.27
2019-04-06T21:09:14.016Z,49.12
2019-04-06T21:11:41.992Z,47.68
2019-04-06T21:14:10.087Z,47.78
2019-04-06T21:16:38.193Z,48.04
2019-04-06T21:19:06.002Z,48.36
2019-04-06T21:21:33.819Z,48.16
2019-04-06T21:24:01.727Z,49.26
2019-04-06T21:26:29.443Z,49.77
2019-04-06T21:28:57.583Z,48.21
2019-04-06T21:31:25.666Z,48.03
2019-04-06T21:33:53.568Z,46.76
2019-04-06T21:36:21.805Z,47.39
2019-04-06T21:38:50.407Z,47.57
2019-04-06T21:41:18.528Z,46.96
2019-04-06T21:43:46.263Z,48.86
2019-04-06T21:46:14.158Z,48.86
2019-04-06T21:48:42.479Z,48.69
2019-04-06T21:51:11.335Z,48.96
2019-04-06T21:53:39.309Z,50.04
2019-04-06T21:56:08.259Z,49.26
2019-04-06T21:58:36.281Z,46.88
2019-04-06T22:01:04.128Z,46.53
2019-04-06T22:03:32.614Z,45.53
2019-04-06T22:06:00.580Z,45.59
2019-04-06T22:08:28.516Z,46.04
2019-04-06T22:10:56.445Z,47.03
2019-04-06T22:13:24.955Z,48.23
2019-04-06T22:15:52.804Z,49.55
2019-04-06T22:18:20.718Z,49.64
2019-04-06T22:20:49.083Z,48.58
2019-04-06T22:23:17.589Z,48.06
2019-04-06T22:25:45.942Z,47.14
2019-04-06T22:28:14.198Z,47.18
2019-04-06T22:30:43.173Z,46.51
2019-04-06T22:33:11.791Z,46.67
2019-04-06T22:35:39.801Z,45.78
2019-04-06T22:38:08.101Z,46.07
2019-04-06T22:40:36.065Z,45.56
2019-04-06T22:43:04.052Z,46.23
2019-04-06T22:45:33.578Z,46.33
2019-04-06T22:48:02.338Z,46.14
2019-04-06T22:50:30.426Z,45.58
2019-04-06T22:52:58.371Z,47.07
2019-04-06T22:55:27.003Z,46.46
2019-04-06T22:57:54.863Z,46.98
2019-04-06T23:00:30.513Z,46.28
2019-04-06T23:03:20.642Z,46.28
2019-04-06T23:05:52.737Z,46.56
2019-04-06T23:08:20.274Z,46.88
2019-04-06T23:10:47.778Z,48.35
2019-04-06T23:13:15.565Z,47.47
2019-04-06T23:15:43.917Z,47.06
2019-04-06T23:18:11.585Z,48.06
2019-04-06T23:20:39.145Z,46.92
2019-04-06T23:23:06.729Z,47.03
2019-04-06T23:25:34.878Z,46.87
2019-04-06T23:28:02.554Z,48.64
2019-04-06T23:30:30.152Z,48.00
2019-04-06T23:32:58.218Z,48.21
2019-04-06T23:35:26.469Z,47.39
2019-04-06T23:37:54.338Z,48.10
2019-04-06T23:40:22.448Z,48.79
2019-04-06T23:42:50.609Z,48.51
2019-04-06T23:45:18.536Z,48.76
2019-04-06T23:47:46.808Z,49.47
2019-04-06T23:50:14.807Z,48.91
2019-04-06T23:52:43.383Z,48.79
2019-04-06T23:55:11.937Z,49.41
2019-04-06T23:57:40.174Z,48.88
